sensor_id;sensor_type;location;lat;lon;timestamp;P1;durP1;ratioP1;P2;durP2;ratioP2
75516;SDS011;64097;52.548;13.406;2023-03-15T06:02:41;4.03;;;1.45;;
75516;SDS011;64097;52.548;13.406;2023-03-15T06:05:08;5.95;;;1.70;;
75516;SDS011;64097;52.548;13.406;2023-03-15T06:07:34;7.50;;;2.10;;
75516;SDS011;64097;52.548;13.406;2023-03-15T06:10:00;9.40;;;2.45;;
75516;SDS011;64097;52.548;13.406;2023-03-15T06:12:26;6.82;;;2.00;;
75516;SDS011;64097;52.548;13.406;2023-03-15T06:14:51;4.00;;;1.40;;
75516;SDS011;64097;52.548;13.406;2023-03-15T06:17:17;5.55;;;1.88;;
75516;SDS011;64097;52.548;13.406;2023-03-15T06:19:43;9.23;;;2.00;;
75516;SDS011;64097;52.548;13.406;2023-03-15T06:22:09;3.33;;;1.38;;
75516;SDS011;64097;52.548;13.406;2023-03-15T06:24:35;7.75;;;1.98;;
75516;SDS011;64097;52.548;13.406;2023-03-15T06:27:00;5.20;;;1.55;;
75516;SDS011;64097;52.548;13.406;2023-03-15T06:29:26;5.78;;;1.55;;
75516;SDS011;64097;52.548;13.406;2023-03-15T06:31:52;7.10;;;1.98;;
75516;SDS011;64097;52.548;13.406;2023-03-15T06:34:18;5.72;;;1.70;;
75516;SDS011;64097;52.548;13.406;2023-03-15T06:36:45;5.03;;;1.67;;
75516;SDS011;64097;52.548;13.406;2023-03-15T06:39:11;4.65;;;1.63;;
75516;SDS011;64097;52.548;13.406;2023-03-15T06:41:39;7.10;;;1.88;;
75516;SDS011;64097;52.548;13.406;2023-03-15T06:44:05;5.82;;;2.00;;
75516;SDS011;64097;52.548;13.406;2023-03-15T06:46:31;6.63;;;2.70;;
75516;SDS011;64097;52.548;13.406;2023-03-15T06:48:57;7.72;;;2.70;;
75516;SDS011;64097;52.548;13.406;2023-03-15T06:51:23;5.22;;;2.45;;
75516;SDS011;64097;52.548;13.406;2023-03-15T06:53:49;5.38;;;2.22;;
75516;SDS011;64097;52.548;13.406;2023-03-15T06:56:14;8.82;;;2.42;;
75516;SDS011;64097;52.548;13.406;2023-03-15T06:58:40;9.52;;;2.35;;
75516;SDS011;64097;52.548;13.406;2023-03-15T07:01:06;6.43;;;2.35;;
75516;SDS011;64097;52.548;13.406;2023-03-15T07:03:31;9.95;;;2.42;;
75516;SDS011;64097;52.548;13.406;2023-03-15T07:05:57;7.78;;;2.70;;
75516;SDS011;64097;52.548;13.406;2023-03-15T07:08:23;9.80;;;3.25;;
75516;SDS011;64097;52.548;13.406;2023-03-15T07:10:50;10.38;;;2.72;;
75516;SDS011;64097;52.548;13.406;2023-03-15T07:13:16;8.18;;;3.10;;
75516;SDS011;64097;52.548;13.406;2023-03-15T07:15:43;6.18;;;2.35;;
75516;SDS011;64097;52.548;13.406;2023-03-15T07:18:08;7.63;;;2.65;;
75516;SDS011;64097;52.548;13.406;2023-03-15T07:20:34;9.73;;;2.53;;
75516;SDS011;64097;52.548;13.406;2023-03-15T07:23:00;9.68;;;2.75;;
75516;SDS011;64097;52.548;13.406;2023-03-15T07:25:26;9.55;;;3.20;;
75516;SDS011;64097;52.548;13.406;2023-03-15T07:27:51;8.75;;;2.83;;
75516;SDS011;64097;52.548;13.406;2023-03-15T07:30:18;6.95;;;2.30;;
75516;SDS011;64097;52.548;13.406;2023-03-15T07:32:45;8.48;;;2.67;;
75516;SDS011;64097;52.548;13.406;2023-03-15T07:35:11;8.23;;;2.80;;
75516;SDS011;64097;52.548;13.406;2023-03-15T07:37:37;7.80;;;2.67;;
75516;SDS011;64097;52.548;13.406;2023-03-15T07:40:03;11.10;;;2.90;;
75516;SDS011;64097;52.548;13.406;2023-03-15T07:42:37;9.68;;;2.78;;
75516;SDS011;64097;52.548;13.406;2023-03-15T07:45:07;9.40;;;3.22;;
75516;SDS011;64097;52.548;13.406;2023-03-15T07:47:34;11.75;;;3.00;;
75516;SDS011;64097;52.548;13.406;2023-03-15T07:50:00;9.85;;;3.70;;
75516;SDS011;64097;52.548;13.406;2023-03-15T07:52:26;10.40;;;3.55;;
75516;SDS011;64097;52.548;13.406;2023-03-15T07:54:52;9.27;;;3.17;;
75516;SDS011;64097;52.548;13.406;2023-03-15T07:57:17;11.07;;;3.65;;
75516;SDS011;64097;52.548;13.406;2023-03-15T07:59:43;6.70;;;2.72;;
75516;SDS011;64097;52.548;13.406;2023-03-15T08:02:12;6.63;;;2.63;;
75516;SDS011;64097;52.548;13.406;2023-03-15T08:04:39;7.40;;;2.83;;
75516;SDS011;64097;52.548;13.406;2023-03-15T08:07:05;7.15;;;2.40;;
75516;SDS011;64097;52.548;13.406;2023-03-15T08:09:31;5.93;;;2.55;;
75516;SDS011;64097;52.548;13.406;2023-03-15T08:11:58;6.90;;;2.60;;
75516;SDS011;64097;52.548;13.406;2023-03-15T08:14:24;5.90;;;2.60;;
75516;SDS011;64097;52.548;13.406;2023-03-15T08:16:50;6.43;;;2.58;;
75516;SDS011;64097;52.548;13.406;2023-03-15T08:19:16;6.60;;;2.90;;
75516;SDS011;64097;52.548;13.406;2023-03-15T08:21:41;8.65;;;3.08;;
75516;SDS011;64097;52.548;13.406;2023-03-15T08:24:09;9.18;;;3.38;;
75516;SDS011;64097;52.548;13.406;2023-03-15T08:26:35;6.60;;;3.00;;
75516;SDS011;64097;52.548;13.406;2023-03-15T08:29:01;8.93;;;3.00;;
75516;SDS011;64097;52.548;13.406;2023-03-15T08:31:27;7.72;;;2.90;;
75516;SDS011;64097;52.548;13.406;2023-03-15T08:33:53;8.05;;;2.97;;
75516;SDS011;64097;52.548;13.406;2023-03-15T08:36:19;9.60;;;3.03;;
75516;SDS011;64097;52.548;13.406;2023-03-15T08:38:44;7.15;;;3.00;;
75516;SDS011;64097;52.548;13.406;2023-03-15T08:41:10;6.97;;;3.00;;
75516;SDS011;64097;52.548;13.406;2023-03-15T08:43:36;9.43;;;3.53;;
75516;SDS011;64097;52.548;13.406;2023-03-15T08:46:01;6.03;;;2.60;;
75516;SDS011;64097;52.548;13.406;2023-03-15T08:48:28;6.97;;;2.90;;
75516;SDS011;64097;52.548;13.406;2023-03-15T08:50:54;6.55;;;3.03;;
75516;SDS011;64097;52.548;13.406;2023-03-15T08:53:20;9.88;;;3.25;;
75516;SDS011;64097;52.548;13.406;2023-03-15T08:55:47;12.63;;;3.70;;
75516;SDS011;64097;52.548;13.406;2023-03-15T08:58:13;7.63;;;3.25;;
75516;SDS011;64097;52.548;13.406;2023-03-15T09:00:39;7.05;;;3.33;;
75516;SDS011;64097;52.548;13.406;2023-03-15T09:03:05;7.28;;;2.70;;
75516;SDS011;64097;52.548;13.406;2023-03-15T09:05:30;6.15;;;2.75;;
75516;SDS011;64097;52.548;13.406;2023-03-15T09:07:56;7.30;;;3.00;;
75516;SDS011;64097;52.548;13.406;2023-03-15T09:10:22;6.00;;;2.70;;
75516;SDS011;64097;52.548;13.406;2023-03-15T09:12:50;6.38;;;3.10;;
75516;SDS011;64097;52.548;13.406;2023-03-15T09:15:17;4.20;;;2.67;;
75516;SDS011;64097;52.548;13.406;2023-03-15T09:17:43;7.50;;;2.97;;
75516;SDS011;64097;52.548;13.406;2023-03-15T09:20:10;6.57;;;2.60;;
75516;SDS011;64097;52.548;13.406;2023-03-15T09:22:43;5.55;;;2.65;;
75516;SDS011;64097;52.548;13.406;2023-03-15T09:25:14;6.97;;;2.60;;
75516;SDS011;64097;52.548;13.406;2023-03-15T09:27:40;5.50;;;2.65;;
75516;SDS011;64097;52.548;13.406;2023-03-15T09:30:05;5.95;;;2.90;;
75516;SDS011;64097;52.548;13.406;2023-03-15T09:32:31;5.57;;;2.63;;
75516;SDS011;64097;52.548;13.406;2023-03-15T09:35:01;6.38;;;2.50;;
75516;SDS011;64097;52.548;13.406;2023-03-15T09:37:31;4.60;;;2.60;;
75516;SDS011;64097;52.548;13.406;2023-03-15T09:39:58;5.30;;;2.42;;
75516;SDS011;64097;52.548;13.406;2023-03-15T09:48:10;6.53;;;3.10;;
75516;SDS011;64097;52.548;13.406;2023-03-15T09:50:44;5.95;;;2.80;;
75516;SDS011;64097;52.548;13.406;2023-03-15T09:56:09;4.82;;;2.40;;
75516;SDS011;64097;52.548;13.406;2023-03-15T09:58:44;4.72;;;2.25;;
75516;SDS011;64097;52.548;13.406;2023-03-15T10:01:11;5.70;;;2.10;;
75516;SDS011;64097;52.548;13.406;2023-03-15T10:03:43;4.40;;;2.10;;
75516;SDS011;64097;52.548;13.406;2023-03-15T10:06:16;4.43;;;1.92;;
75516;SDS011;64097;52.548;13.406;2023-03-15T10:11:19;4.80;;;2.33;;
75516;SDS011;64097;52.548;13.406;2023-03-15T10:24:27;4.68;;;1.95;;
75516;SDS011;64097;52.548;13.406;2023-03-15T10:27:16;5.05;;;2.13;;
75516;SDS011;64097;52.548;13.406;2023-03-15T10:29:51;4.75;;;1.77;;
75516;SDS011;64097;52.548;13.406;2023-03-15T10:32:21;5.78;;;2.35;;
75516;SDS011;64097;52.548;13.406;2023-03-15T10:34:51;5.00;;;2.30;;
75516;SDS011;64097;52.548;13.406;2023-03-15T10:37:20;3.92;;;1.85;;
75516;SDS011;64097;52.548;13.406;2023-03-15T10:39:48;4.90;;;2.20;;
75516;SDS011;64097;52.548;13.406;2023-03-15T10:42:26;5.35;;;2.03;;
75516;SDS011;64097;52.548;13.406;2023-03-15T10:44:53;7.00;;;2.47;;
75516;SDS011;64097;52.548;13.406;2023-03-15T10:47:19;5.03;;;2.58;;
75516;SDS011;64097;52.548;13.406;2023-03-15T10:49:46;3.40;;;2.28;;
75516;SDS011;64097;52.548;13.406;2023-03-15T10:52:25;4.20;;;2.40;;
75516;SDS011;64097;52.548;13.406;2023-03-15T10:57:56;4.63;;;2.33;;
75516;SDS011;64097;52.548;13.406;2023-03-15T11:00:28;3.95;;;2.08;;
75516;SDS011;64097;52.548;13.406;2023-03-15T11:03:03;4.07;;;2.20;;
75516;SDS011;64097;52.548;13.406;2023-03-15T11:05:41;4.20;;;2.42;;
75516;SDS011;64097;52.548;13.406;2023-03-15T11:08:12;3.63;;;2.10;;
75516;SDS011;64097;52.548;13.406;2023-03-15T11:10:40;3.30;;;2.00;;
75516;SDS011;64097;52.548;13.406;2023-03-15T11:13:18;4.55;;;1.58;;
75516;SDS011;64097;52.548;13.406;2023-03-15T11:15:54;2.17;;;1.20;;
75516;SDS011;64097;52.548;13.406;2023-03-15T11:18:45;4.50;;;1.60;;
75516;SDS011;64097;52.548;13.406;2023-03-15T11:21:31;3.85;;;1.60;;
75516;SDS011;64097;52.548;13.406;2023-03-15T11:23:58;5.15;;;1.83;;
75516;SDS011;64097;52.548;13.406;2023-03-15T11:26:26;4.45;;;1.73;;
75516;SDS011;64097;52.548;13.406;2023-03-15T11:29:03;4.18;;;1.63;;
75516;SDS011;64097;52.548;13.406;2023-03-15T11:31:38;2.88;;;1.50;;
75516;SDS011;64097;52.548;13.406;2023-03-15T11:34:06;3.90;;;1.70;;
75516;SDS011;64097;52.548;13.406;2023-03-15T11:36:39;3.92;;;1.80;;
75516;SDS011;64097;52.548;13.406;2023-03-15T11:39:09;2.67;;;1.75;;
75516;SDS011;64097;52.548;13.406;2023-03-15T11:44:32;4.15;;;1.80;;
75516;SDS011;64097;52.548;13.406;2023-03-15T11:47:13;2.92;;;1.35;;
75516;SDS011;64097;52.548;13.406;2023-03-15T11:49:52;2.20;;;1.40;;
75516;SDS011;64097;52.548;13.406;2023-03-15T11:52:20;4.32;;;1.48;;
75516;SDS011;64097;52.548;13.406;2023-03-15T11:54:47;3.22;;;1.40;;
75516;SDS011;64097;52.548;13.406;2023-03-15T12:00:19;3.05;;;1.58;;
75516;SDS011;64097;52.548;13.406;2023-03-15T12:03:23;3.83;;;1.70;;
75516;SDS011;64097;52.548;13.406;2023-03-15T12:06:03;2.95;;;1.50;;
75516;SDS011;64097;52.548;13.406;2023-03-15T12:13:53;4.43;;;1.55;;
75516;SDS011;64097;52.548;13.406;2023-03-15T12:16:28;2.67;;;1.23;;
75516;SDS011;64097;52.548;13.406;2023-03-15T12:19:23;3.95;;;1.38;;
75516;SDS011;64097;52.548;13.406;2023-03-15T12:21:55;2.53;;;1.30;;
75516;SDS011;64097;52.548;13.406;2023-03-15T12:24:26;2.80;;;1.40;;
75516;SDS011;64097;52.548;13.406;2023-03-15T12:27:04;2.95;;;1.30;;
75516;SDS011;64097;52.548;13.406;2023-03-15T12:29:39;6.63;;;1.60;;
75516;SDS011;64097;52.548;13.406;2023-03-15T12:32:10;3.03;;;1.50;;
75516;SDS011;64097;52.548;13.406;2023-03-15T12:56:11;3.38;;;1.27;;
75516;SDS011;64097;52.548;13.406;2023-03-15T12:58:47;2.58;;;1.40;;
75516;SDS011;64097;52.548;13.406;2023-03-15T13:01:16;3.03;;;1.30;;
75516;SDS011;64097;52.548;13.406;2023-03-15T13:03:43;4.07;;;1.40;;
75516;SDS011;64097;52.548;13.406;2023-03-15T13:06:27;3.20;;;1.00;;
75516;SDS011;64097;52.548;13.406;2023-03-15T13:09:08;2.90;;;1.20;;
75516;SDS011;64097;52.548;13.406;2023-03-15T13:11:55;2.42;;;1.05;;
75516;SDS011;64097;52.548;13.406;2023-03-15T13:14:51;2.83;;;1.20;;
75516;SDS011;64097;52.548;13.406;2023-03-15T13:28:40;3.75;;;1.48;;
75516;SDS011;64097;52.548;13.406;2023-03-15T13:31:16;4.72;;;1.30;;
75516;SDS011;64097;52.548;13.406;2023-03-15T13:33:47;4.18;;;1.10;;
75516;SDS011;64097;52.548;13.406;2023-03-15T13:36:18;2.63;;;0.95;;
75516;SDS011;64097;52.548;13.406;2023-03-15T13:38:48;2.65;;;0.82;;
75516;SDS011;64097;52.548;13.406;2023-03-15T13:43:52;4.65;;;1.30;;
75516;SDS011;64097;52.548;13.406;2023-03-15T13:46:22;5.25;;;1.63;;
75516;SDS011;64097;52.548;13.406;2023-03-15T13:48:51;3.22;;;1.40;;
75516;SDS011;64097;52.548;13.406;2023-03-15T13:51:27;4.68;;;1.70;;
75516;SDS011;64097;52.548;13.406;2023-03-15T13:56:35;5.15;;;1.80;;
75516;SDS011;64097;52.548;13.406;2023-03-15T13:59:07;7.45;;;1.70;;
